This is the latest recevied weather packets stored in our database for station/object W4TJP. If no packets are shown the sender has not sent any weather packets the latest 10 day(s).
| Time | Temp. | Humidity | Pressure | Rain* | Wind** | Luminosity | Snow |
|---|---|---|---|---|---|---|---|
| 1777412864 | 23.89° C | 77% | 1015.4 hPa | 0 mm | - | 131 W/m² | - |
| 1777412563 | 23.89° C | 77% | 1015.2 hPa | 0 mm | - | 149 W/m² | - |
| 1777412261 | 23.89° C | 76% | 1015.1 hPa | 0 mm | - | 214 W/m² | - |
| 1777411957 | 24.44° C | 74% | 1014.8 hPa | 0 mm | - | 133 W/m² | - |
| 1777411656 | 25° C | 73% | 1014.9 hPa | 0 mm | - | 293 W/m² | - |
| 1777411351 | 25° C | 73% | 1014.6 hPa | 0 mm | - | 357 W/m² | - |
| 1777411050 | 25° C | 71% | 1014.7 hPa | 0 mm | - | 430 W/m² | - |
| 1777410745 | 25° C | 73% | 1014.6 hPa | 0 mm | - | 420 W/m² | - |
| 1777410439 | 25° C | 72% | 1014.7 hPa | 0 mm | - | 158 W/m² | - |
| 1777410138 | 24.44° C | 75% | 1014.7 hPa | 0 mm | - | 560 W/m² | - |
| 1777409833 | 25.56° C | 72% | 1015.2 hPa | 0 mm | - | 129 W/m² | - |
| 1777409529 | 25° C | 75% | 1015.5 hPa | 0 mm | - | 537 W/m² | - |
| 1777409224 | 23.89° C | 74% | 1015.4 hPa | 0 mm | - | 337 W/m² | - |
| 1777408920 | 24.44° C | 72% | 1015.7 hPa | 0 mm | - | 304 W/m² | - |
| 1777408617 | 25° C | 75% | 1016 hPa | 0 mm | - | 122 W/m² | - |
| 1777408313 | 24.44° C | 75% | 1016.2 hPa | 0 mm | - | 603 W/m² | - |
| 1777408012 | 25.56° C | 72% | 1016.5 hPa | 0 mm | - | 87 W/m² | - |
| 1777407710 | 25.56° C | 70% | 1016.3 hPa | 0 mm | - | 410 W/m² | - |
| 1777407404 | 24.44° C | 72% | 1016.4 hPa | 0 mm | - | 227 W/m² | - |
| 1777407100 | 24.44° C | 73% | 1016.7 hPa | 0 mm | - | 181 W/m² | - |
| 1777406796 | 25° C | 71% | 1016.4 hPa | 0 mm | - | 154 W/m² | - |
| 1777406491 | 24.44° C | 73% | 1016.5 hPa | 0 mm | - | 647 W/m² | - |
| 1777406186 | 24.44° C | 74% | 1016.5 hPa | 0 mm | - | 217 W/m² | - |
| 1777405881 | 23.89° C | 77% | 1016.5 hPa | 0 mm | - | 114 W/m² | - |
| 1777405577 | 23.33° C | 79% | 1016.6 hPa | 0 mm | - | 653 W/m² | - |
* Rain latest hour (hover to see other rain measurements)
** Current wind speed in m/s (hover to see current wind gust speed)